sensor_id;sensor_type;location;lat;lon;timestamp;temperature;humidity
16064;DHT22;8136;53.172;8.256;2023-04-09T00:01:36;9.90;99.90
16064;DHT22;8136;53.172;8.256;2023-04-09T00:04:02;9.90;99.90
16064;DHT22;8136;53.172;8.256;2023-04-09T00:06:31;9.90;99.90
16064;DHT22;8136;53.172;8.256;2023-04-09T00:08:57;9.90;99.90
16064;DHT22;8136;53.172;8.256;2023-04-09T00:11:53;9.90;99.90
16064;DHT22;8136;53.172;8.256;2023-04-09T00:14:23;9.90;99.90
16064;DHT22;8136;53.172;8.256;2023-04-09T00:16:57;9.90;99.90
16064;DHT22;8136;53.172;8.256;2023-04-09T08:03:04;10.10;99.90
16064;DHT22;8136;53.172;8.256;2023-04-09T08:05:31;10.10;99.90
16064;DHT22;8136;53.172;8.256;2023-04-09T08:07:58;10.20;99.90
16064;DHT22;8136;53.172;8.256;2023-04-09T08:10:26;10.40;99.90
16064;DHT22;8136;53.172;8.256;2023-04-09T08:13:01;10.50;99.90
16064;DHT22;8136;53.172;8.256;2023-04-09T08:15:31;10.50;99.90
16064;DHT22;8136;53.172;8.256;2023-04-09T08:17:58;10.50;99.90
16064;DHT22;8136;53.172;8.256;2023-04-09T08:20:29;10.60;99.90
16064;DHT22;8136;53.172;8.256;2023-04-09T08:22:57;10.60;99.90
16064;DHT22;8136;53.172;8.256;2023-04-09T08:25:25;10.60;99.90
16064;DHT22;8136;53.172;8.256;2023-04-09T08:27:51;10.70;99.90
16064;DHT22;8136;53.172;8.256;2023-04-09T08:30:19;10.80;99.90
16064;DHT22;8136;53.172;8.256;2023-04-09T08:32:46;10.80;99.90
16064;DHT22;8136;53.172;8.256;2023-04-09T08:35:13;10.80;99.90
16064;DHT22;8136;53.172;8.256;2023-04-09T08:37:50;10.90;99.90
16064;DHT22;8136;53.172;8.256;2023-04-09T08:40:19;11.00;99.90
16064;DHT22;8136;53.172;8.256;2023-04-09T08:42:57;11.10;99.90
16064;DHT22;8136;53.172;8.256;2023-04-09T08:48:38;11.30;99.90
16064;DHT22;8136;53.172;8.256;2023-04-09T08:51:08;11.30;99.90
16064;DHT22;8136;53.172;8.256;2023-04-09T08:57:56;11.30;99.90
16064;DHT22;8136;53.172;8.256;2023-04-09T09:00:32;11.50;99.90
16064;DHT22;8136;53.172;8.256;2023-04-09T09:06:34;11.40;99.90
16064;DHT22;8136;53.172;8.256;2023-04-09T09:19:48;12.00;99.90
16064;DHT22;8136;53.172;8.256;2023-04-09T09:23:06;12.00;99.90
16064;DHT22;8136;53.172;8.256;2023-04-09T09:25:40;12.10;99.90
16064;DHT22;8136;53.172;8.256;2023-04-09T09:31:45;12.50;99.90
16064;DHT22;8136;53.172;8.256;2023-04-09T09:34:13;12.50;99.90
16064;DHT22;8136;53.172;8.256;2023-04-09T09:36:43;12.60;99.90
16064;DHT22;8136;53.172;8.256;2023-04-09T09:39:11;12.70;99.90
16064;DHT22;8136;53.172;8.256;2023-04-09T09:41:39;12.80;99.90
16064;DHT22;8136;53.172;8.256;2023-04-09T09:44:07;13.00;99.90
16064;DHT22;8136;53.172;8.256;2023-04-09T09:46:35;13.00;99.90
16064;DHT22;8136;53.172;8.256;2023-04-09T09:49:02;13.10;99.90
16064;DHT22;8136;53.172;8.256;2023-04-09T09:51:34;13.20;99.90
16064;DHT22;8136;53.172;8.256;2023-04-09T09:54:07;13.20;99.90
16064;DHT22;8136;53.172;8.256;2023-04-09T09:56:38;13.20;99.90
16064;DHT22;8136;53.172;8.256;2023-04-09T09:59:14;13.20;99.90
16064;DHT22;8136;53.172;8.256;2023-04-09T10:01:45;13.30;99.90
16064;DHT22;8136;53.172;8.256;2023-04-09T10:04:14;13.50;99.90
16064;DHT22;8136;53.172;8.256;2023-04-09T10:06:43;13.50;99.90
16064;DHT22;8136;53.172;8.256;2023-04-09T10:09:12;13.60;99.90
16064;DHT22;8136;53.172;8.256;2023-04-09T10:11:39;13.70;99.90
16064;DHT22;8136;53.172;8.256;2023-04-09T10:14:08;13.80;99.90
16064;DHT22;8136;53.172;8.256;2023-04-09T10:16:35;13.80;99.90
16064;DHT22;8136;53.172;8.256;2023-04-09T10:19:02;13.80;99.90
16064;DHT22;8136;53.172;8.256;2023-04-09T10:21:35;13.90;99.90
16064;DHT22;8136;53.172;8.256;2023-04-09T10:24:07;13.90;99.90
16064;DHT22;8136;53.172;8.256;2023-04-09T10:26:39;14.00;99.90
16064;DHT22;8136;53.172;8.256;2023-04-09T10:29:07;14.00;99.90
16064;DHT22;8136;53.172;8.256;2023-04-09T10:31:50;14.10;99.90
16064;DHT22;8136;53.172;8.256;2023-04-09T10:34:17;14.20;99.90
16064;DHT22;8136;53.172;8.256;2023-04-09T10:36:50;14.20;99.90
16064;DHT22;8136;53.172;8.256;2023-04-09T10:39:18;14.30;99.90
16064;DHT22;8136;53.172;8.256;2023-04-09T10:41:47;14.40;99.90
16064;DHT22;8136;53.172;8.256;2023-04-09T10:44:21;14.40;99.90
16064;DHT22;8136;53.172;8.256;2023-04-09T10:46:52;14.30;99.90
16064;DHT22;8136;53.172;8.256;2023-04-09T10:49:20;14.30;99.90
16064;DHT22;8136;53.172;8.256;2023-04-09T10:51:51;14.50;99.90
16064;DHT22;8136;53.172;8.256;2023-04-09T10:54:38;14.80;99.90
16064;DHT22;8136;53.172;8.256;2023-04-09T10:57:14;15.00;99.90
16064;DHT22;8136;53.172;8.256;2023-04-09T10:59:42;15.10;99.90
16064;DHT22;8136;53.172;8.256;2023-04-09T11:05:17;15.10;99.90
16064;DHT22;8136;53.172;8.256;2023-04-09T11:07:48;15.10;99.90
16064;DHT22;8136;53.172;8.256;2023-04-09T11:10:18;15.00;99.90
16064;DHT22;8136;53.172;8.256;2023-04-09T11:12:47;15.10;99.90
16064;DHT22;8136;53.172;8.256;2023-04-09T11:15:18;15.20;99.90
16064;DHT22;8136;53.172;8.256;2023-04-09T11:17:46;15.40;99.90
16064;DHT22;8136;53.172;8.256;2023-04-09T11:20:13;15.60;99.90
16064;DHT22;8136;53.172;8.256;2023-04-09T11:22:43;15.80;99.90
16064;DHT22;8136;53.172;8.256;2023-04-09T11:25:10;15.80;99.90
16064;DHT22;8136;53.172;8.256;2023-04-09T11:27:44;15.90;99.90
16064;DHT22;8136;53.172;8.256;2023-04-09T11:30:12;16.00;99.90
16064;DHT22;8136;53.172;8.256;2023-04-09T11:32:41;16.10;99.90
16064;DHT22;8136;53.172;8.256;2023-04-09T11:35:11;16.20;99.90
16064;DHT22;8136;53.172;8.256;2023-04-09T11:37:41;16.30;99.90
16064;DHT22;8136;53.172;8.256;2023-04-09T11:40:14;16.60;99.90
16064;DHT22;8136;53.172;8.256;2023-04-09T11:42:42;16.60;99.90
16064;DHT22;8136;53.172;8.256;2023-04-09T11:45:10;16.70;99.90
16064;DHT22;8136;53.172;8.256;2023-04-09T11:47:39;16.60;99.90
16064;DHT22;8136;53.172;8.256;2023-04-09T11:50:08;16.60;99.90
16064;DHT22;8136;53.172;8.256;2023-04-09T11:52:35;16.60;99.90
16064;DHT22;8136;53.172;8.256;2023-04-09T11:55:05;16.60;99.90
16064;DHT22;8136;53.172;8.256;2023-04-09T11:57:38;16.70;99.90
16064;DHT22;8136;53.172;8.256;2023-04-09T12:00:09;17.00;99.90
16064;DHT22;8136;53.172;8.256;2023-04-09T12:02:40;17.10;99.90
16064;DHT22;8136;53.172;8.256;2023-04-09T12:05:11;17.20;99.90
16064;DHT22;8136;53.172;8.256;2023-04-09T12:07:39;17.20;99.90
16064;DHT22;8136;53.172;8.256;2023-04-09T12:10:08;17.20;99.90
16064;DHT22;8136;53.172;8.256;2023-04-09T12:12:39;17.20;99.90
16064;DHT22;8136;53.172;8.256;2023-04-09T12:15:17;17.20;99.90
16064;DHT22;8136;53.172;8.256;2023-04-09T12:17:47;17.30;99.90
16064;DHT22;8136;53.172;8.256;2023-04-09T12:20:32;17.20;99.90
16064;DHT22;8136;53.172;8.256;2023-04-09T12:23:00;16.90;99.90
16064;DHT22;8136;53.172;8.256;2023-04-09T12:25:28;16.60;99.90
16064;DHT22;8136;53.172;8.256;2023-04-09T12:27:55;16.80;99.90
16064;DHT22;8136;53.172;8.256;2023-04-09T12:30:23;16.90;99.90
16064;DHT22;8136;53.172;8.256;2023-04-09T12:32:52;17.00;99.90
16064;DHT22;8136;53.172;8.256;2023-04-09T12:35:19;17.20;99.90
16064;DHT22;8136;53.172;8.256;2023-04-09T12:37:46;17.30;99.90
16064;DHT22;8136;53.172;8.256;2023-04-09T12:40:14;17.30;99.90
16064;DHT22;8136;53.172;8.256;2023-04-09T12:42:41;17.30;99.90
16064;DHT22;8136;53.172;8.256;2023-04-09T12:45:09;17.30;99.90
16064;DHT22;8136;53.172;8.256;2023-04-09T12:47:36;17.20;99.90
16064;DHT22;8136;53.172;8.256;2023-04-09T12:50:07;17.20;99.90
16064;DHT22;8136;53.172;8.256;2023-04-09T12:52:34;17.30;99.90
16064;DHT22;8136;53.172;8.256;2023-04-09T12:55:02;17.30;99.90
16064;DHT22;8136;53.172;8.256;2023-04-09T12:57:30;17.30;99.90
16064;DHT22;8136;53.172;8.256;2023-04-09T12:59:58;17.50;99.90
16064;DHT22;8136;53.172;8.256;2023-04-09T13:02:25;17.50;99.90
16064;DHT22;8136;53.172;8.256;2023-04-09T13:04:51;17.30;99.90
16064;DHT22;8136;53.172;8.256;2023-04-09T13:07:20;17.20;99.90
16064;DHT22;8136;53.172;8.256;2023-04-09T13:09:47;17.30;99.90
16064;DHT22;8136;53.172;8.256;2023-04-09T13:12:17;17.30;99.90
16064;DHT22;8136;53.172;8.256;2023-04-09T13:14:46;17.50;99.90
16064;DHT22;8136;53.172;8.256;2023-04-09T13:17:13;17.60;99.90
16064;DHT22;8136;53.172;8.256;2023-04-09T13:19:40;17.60;99.90
16064;DHT22;8136;53.172;8.256;2023-04-09T13:22:07;17.60;99.80
16064;DHT22;8136;53.172;8.256;2023-04-09T13:24:36;17.80;99.70
16064;DHT22;8136;53.172;8.256;2023-04-09T13:27:04;18.20;99.90
16064;DHT22;8136;53.172;8.256;2023-04-09T13:29:33;18.90;99.90
16064;DHT22;8136;53.172;8.256;2023-04-09T13:32:00;19.70;99.90
16064;DHT22;8136;53.172;8.256;2023-04-09T13:34:31;20.60;99.70
16064;DHT22;8136;53.172;8.256;2023-04-09T13:36:59;21.60;98.00
16064;DHT22;8136;53.172;8.256;2023-04-09T13:39:25;22.50;95.70
16064;DHT22;8136;53.172;8.256;2023-04-09T13:41:54;23.60;95.60
16064;DHT22;8136;53.172;8.256;2023-04-09T13:44:21;24.60;92.20
16064;DHT22;8136;53.172;8.256;2023-04-09T13:46:48;25.40;90.00
16064;DHT22;8136;53.172;8.256;2023-04-09T13:49:14;25.80;86.20
16064;DHT22;8136;53.172;8.256;2023-04-09T13:51:42;26.00;84.00
16064;DHT22;8136;53.172;8.256;2023-04-09T13:54:09;26.70;85.00
16064;DHT22;8136;53.172;8.256;2023-04-09T13:56:36;27.40;81.80
16064;DHT22;8136;53.172;8.256;2023-04-09T13:59:05;27.60;78.70
16064;DHT22;8136;53.172;8.256;2023-04-09T14:01:32;27.40;77.20
16064;DHT22;8136;53.172;8.256;2023-04-09T14:03:59;27.10;74.60
16064;DHT22;8136;53.172;8.256;2023-04-09T14:06:25;27.30;76.00
16064;DHT22;8136;53.172;8.256;2023-04-09T14:08:52;27.60;74.30
16064;DHT22;8136;53.172;8.256;2023-04-09T14:11:19;27.70;75.10
16064;DHT22;8136;53.172;8.256;2023-04-09T14:13:46;26.80;74.90
16064;DHT22;8136;53.172;8.256;2023-04-09T14:16:39;25.60;74.60
16064;DHT22;8136;53.172;8.256;2023-04-09T14:19:06;24.70;75.60
16064;DHT22;8136;53.172;8.256;2023-04-09T14:21:34;24.60;78.50
16064;DHT22;8136;53.172;8.256;2023-04-09T14:24:01;25.10;77.40
16064;DHT22;8136;53.172;8.256;2023-04-09T14:26:28;25.40;76.30
16064;DHT22;8136;53.172;8.256;2023-04-09T14:28:54;25.70;75.80
16064;DHT22;8136;53.172;8.256;2023-04-09T14:31:23;26.20;74.70
16064;DHT22;8136;53.172;8.256;2023-04-09T14:33:50;26.50;74.10
16064;DHT22;8136;53.172;8.256;2023-04-09T14:36:17;27.10;73.00
16064;DHT22;8136;53.172;8.256;2023-04-09T14:38:44;27.70;72.50
16064;DHT22;8136;53.172;8.256;2023-04-09T14:41:12;28.20;72.60
16064;DHT22;8136;53.172;8.256;2023-04-09T14:43:39;28.20;69.30
16064;DHT22;8136;53.172;8.256;2023-04-09T14:46:06;28.00;69.70
16064;DHT22;8136;53.172;8.256;2023-04-09T14:48:37;28.40;70.30
16064;DHT22;8136;53.172;8.256;2023-04-09T14:51:05;28.20;69.00
16064;DHT22;8136;53.172;8.256;2023-04-09T14:53:32;28.60;69.10
16064;DHT22;8136;53.172;8.256;2023-04-09T14:55:59;29.00;68.40
16064;DHT22;8136;53.172;8.256;2023-04-09T14:58:26;29.30;65.70
16064;DHT22;8136;53.172;8.256;2023-04-09T15:00:53;29.50;66.90
16064;DHT22;8136;53.172;8.256;2023-04-09T15:03:21;30.10;66.70
16064;DHT22;8136;53.172;8.256;2023-04-09T15:05:49;30.50;65.90
16064;DHT22;8136;53.172;8.256;2023-04-09T15:08:16;30.60;63.20
16064;DHT22;8136;53.172;8.256;2023-04-09T15:10:43;30.70;63.40
16064;DHT22;8136;53.172;8.256;2023-04-09T15:13:13;31.00;63.30
16064;DHT22;8136;53.172;8.256;2023-04-09T15:15:40;31.40;62.70
16064;DHT22;8136;53.172;8.256;2023-04-09T15:18:11;31.30;61.80
16064;DHT22;8136;53.172;8.256;2023-04-09T15:20:38;31.10;61.00
16064;DHT22;8136;53.172;8.256;2023-04-09T15:23:08;31.20;60.70
16064;DHT22;8136;53.172;8.256;2023-04-09T15:25:35;31.50;60.70
16064;DHT22;8136;53.172;8.256;2023-04-09T15:28:02;31.50;61.10
16064;DHT22;8136;53.172;8.256;2023-04-09T15:30:29;31.30;60.70
16064;DHT22;8136;53.172;8.256;2023-04-09T15:32:56;31.30;58.70
16064;DHT22;8136;53.172;8.256;2023-04-09T15:35:23;31.30;58.70
16064;DHT22;8136;53.172;8.256;2023-04-09T15:37:54;31.40;59.10
16064;DHT22;8136;53.172;8.256;2023-04-09T15:40:22;31.40;60.40
16064;DHT22;8136;53.172;8.256;2023-04-09T15:42:49;31.80;59.50
16064;DHT22;8136;53.172;8.256;2023-04-09T15:45:16;31.70;58.30
16064;DHT22;8136;53.172;8.256;2023-04-09T15:47:48;31.60;58.50
16064;DHT22;8136;53.172;8.256;2023-04-09T15:50:15;31.60;58.10
16064;DHT22;8136;53.172;8.256;2023-04-09T15:52:42;31.30;57.80
16064;DHT22;8136;53.172;8.256;2023-04-09T15:55:09;31.20;58.00
16064;DHT22;8136;53.172;8.256;2023-04-09T15:57:40;31.00;58.30
16064;DHT22;8136;53.172;8.256;2023-04-09T16:00:11;31.10;58.30
16064;DHT22;8136;53.172;8.256;2023-04-09T16:02:40;30.80;57.60
16064;DHT22;8136;53.172;8.256;2023-04-09T16:05:07;30.90;58.10
16064;DHT22;8136;53.172;8.256;2023-04-09T16:07:34;30.90;57.70
16064;DHT22;8136;53.172;8.256;2023-04-09T16:10:01;30.60;57.70
16064;DHT22;8136;53.172;8.256;2023-04-09T16:12:29;30.40;57.60
16064;DHT22;8136;53.172;8.256;2023-04-09T16:14:57;30.30;57.50
16064;DHT22;8136;53.172;8.256;2023-04-09T16:17:24;30.00;58.20
16064;DHT22;8136;53.172;8.256;2023-04-09T16:19:54;29.90;58.30
16064;DHT22;8136;53.172;8.256;2023-04-09T16:22:21;29.50;58.50
16064;DHT22;8136;53.172;8.256;2023-04-09T16:24:47;29.30;58.60
16064;DHT22;8136;53.172;8.256;2023-04-09T16:27:14;29.00;58.50
16064;DHT22;8136;53.172;8.256;2023-04-09T16:29:42;28.70;58.80
16064;DHT22;8136;53.172;8.256;2023-04-09T16:32:10;28.30;58.90
16064;DHT22;8136;53.172;8.256;2023-04-09T16:34:37;27.80;59.60
16064;DHT22;8136;53.172;8.256;2023-04-09T16:37:04;27.10;60.50
16064;DHT22;8136;53.172;8.256;2023-04-09T16:39:32;26.60;61.20
16064;DHT22;8136;53.172;8.256;2023-04-09T16:41:58;26.10;62.50
16064;DHT22;8136;53.172;8.256;2023-04-09T16:44:26;25.70;63.90
16064;DHT22;8136;53.172;8.256;2023-04-09T16:46:52;25.30;63.40
16064;DHT22;8136;53.172;8.256;2023-04-09T16:49:22;25.00;64.20
16064;DHT22;8136;53.172;8.256;2023-04-09T16:51:49;24.90;63.80
16064;DHT22;8136;53.172;8.256;2023-04-09T16:54:17;24.80;64.50
16064;DHT22;8136;53.172;8.256;2023-04-09T16:56:44;24.70;64.10
16064;DHT22;8136;53.172;8.256;2023-04-09T16:59:12;24.50;63.90
16064;DHT22;8136;53.172;8.256;2023-04-09T17:01:42;24.00;64.40
16064;DHT22;8136;53.172;8.256;2023-04-09T17:04:09;23.40;65.70
16064;DHT22;8136;53.172;8.256;2023-04-09T17:06:37;23.20;66.80
16064;DHT22;8136;53.172;8.256;2023-04-09T17:09:03;23.10;67.30
16064;DHT22;8136;53.172;8.256;2023-04-09T17:11:30;22.80;67.60
16064;DHT22;8136;53.172;8.256;2023-04-09T17:13:58;22.50;68.50
16064;DHT22;8136;53.172;8.256;2023-04-09T17:16:24;22.00;69.20
16064;DHT22;8136;53.172;8.256;2023-04-09T17:18:52;21.70;70.20
16064;DHT22;8136;53.172;8.256;2023-04-09T17:21:19;21.50;70.60
16064;DHT22;8136;53.172;8.256;2023-04-09T17:23:47;21.20;71.20
16064;DHT22;8136;53.172;8.256;2023-04-09T17:26:14;21.00;71.90
16064;DHT22;8136;53.172;8.256;2023-04-09T17:28:41;20.60;72.10
16064;DHT22;8136;53.172;8.256;2023-04-09T17:31:13;20.20;73.50
16064;DHT22;8136;53.172;8.256;2023-04-09T17:33:42;19.80;74.40
16064;DHT22;8136;53.172;8.256;2023-04-09T17:36:21;19.50;75.50
16064;DHT22;8136;53.172;8.256;2023-04-09T17:39:07;19.20;76.10
16064;DHT22;8136;53.172;8.256;2023-04-09T17:44:26;18.70;77.40
16064;DHT22;8136;53.172;8.256;2023-04-09T17:46:53;18.40;77.80
16064;DHT22;8136;53.172;8.256;2023-04-09T17:49:19;18.20;79.30
16064;DHT22;8136;53.172;8.256;2023-04-09T17:51:50;18.10;79.80
16064;DHT22;8136;53.172;8.256;2023-04-09T17:54:18;17.90;79.70
16064;DHT22;8136;53.172;8.256;2023-04-09T17:56:45;17.70;80.70
16064;DHT22;8136;53.172;8.256;2023-04-09T17:59:12;17.50;81.30
16064;DHT22;8136;53.172;8.256;2023-04-09T18:01:39;17.30;82.40
16064;DHT22;8136;53.172;8.256;2023-04-09T18:04:09;17.10;83.80
16064;DHT22;8136;53.172;8.256;2023-04-09T18:06:39;17.00;83.20
16064;DHT22;8136;53.172;8.256;2023-04-09T18:09:07;16.80;82.90
16064;DHT22;8136;53.172;8.256;2023-04-09T18:11:36;16.60;83.40
16064;DHT22;8136;53.172;8.256;2023-04-09T18:14:05;16.40;83.80
16064;DHT22;8136;53.172;8.256;2023-04-09T18:16:33;16.30;84.30
16064;DHT22;8136;53.172;8.256;2023-04-09T18:19:01;16.20;84.20
16064;DHT22;8136;53.172;8.256;2023-04-09T18:21:28;16.00;84.30
16064;DHT22;8136;53.172;8.256;2023-04-09T18:23:55;16.00;85.10
16064;DHT22;8136;53.172;8.256;2023-04-09T18:26:22;15.90;86.00
16064;DHT22;8136;53.172;8.256;2023-04-09T18:28:51;15.80;86.80
16064;DHT22;8136;53.172;8.256;2023-04-09T18:31:18;15.60;87.50
16064;DHT22;8136;53.172;8.256;2023-04-09T18:33:45;15.50;87.30
16064;DHT22;8136;53.172;8.256;2023-04-09T18:36:12;15.40;87.10
16064;DHT22;8136;53.172;8.256;2023-04-09T18:38:42;15.40;87.00
16064;DHT22;8136;53.172;8.256;2023-04-09T18:41:09;15.40;87.40
16064;DHT22;8136;53.172;8.256;2023-04-09T18:43:44;15.30;87.80
16064;DHT22;8136;53.172;8.256;2023-04-09T18:46:12;15.40;87.70
16064;DHT22;8136;53.172;8.256;2023-04-09T18:48:42;15.20;87.60
16064;DHT22;8136;53.172;8.256;2023-04-09T18:51:09;15.10;87.90
16064;DHT22;8136;53.172;8.256;2023-04-09T18:53:36;15.00;88.50
16064;DHT22;8136;53.172;8.256;2023-04-09T18:56:03;14.90;88.70
16064;DHT22;8136;53.172;8.256;2023-04-09T18:58:32;14.90;88.90
16064;DHT22;8136;53.172;8.256;2023-04-09T19:00:59;14.80;89.10
16064;DHT22;8136;53.172;8.256;2023-04-09T19:03:27;14.80;89.20
16064;DHT22;8136;53.172;8.256;2023-04-09T19:05:54;14.80;89.20
16064;DHT22;8136;53.172;8.256;2023-04-09T19:08:21;14.80;89.80
16064;DHT22;8136;53.172;8.256;2023-04-09T19:10:47;14.80;89.90
16064;DHT22;8136;53.172;8.256;2023-04-09T19:13:14;14.80;90.10
16064;DHT22;8136;53.172;8.256;2023-04-09T19:15:41;14.80;90.10
16064;DHT22;8136;53.172;8.256;2023-04-09T19:18:08;14.80;90.30
16064;DHT22;8136;53.172;8.256;2023-04-09T19:20:36;14.60;90.60
16064;DHT22;8136;53.172;8.256;2023-04-09T19:23:03;14.60;90.90
16064;DHT22;8136;53.172;8.256;2023-04-09T19:25:31;14.60;91.20
16064;DHT22;8136;53.172;8.256;2023-04-09T19:27:58;14.50;91.40
16064;DHT22;8136;53.172;8.256;2023-04-09T19:30:25;14.40;91.90
16064;DHT22;8136;53.172;8.256;2023-04-09T19:32:52;14.40;92.20
16064;DHT22;8136;53.172;8.256;2023-04-09T19:35:19;14.40;92.30
16064;DHT22;8136;53.172;8.256;2023-04-09T19:37:48;14.40;92.50
16064;DHT22;8136;53.172;8.256;2023-04-09T19:40:14;14.40;92.70
16064;DHT22;8136;53.172;8.256;2023-04-09T19:42:42;14.40;93.10
16064;DHT22;8136;53.172;8.256;2023-04-09T19:45:10;14.40;93.30
16064;DHT22;8136;53.172;8.256;2023-04-09T19:47:37;14.50;93.90
16064;DHT22;8136;53.172;8.256;2023-04-09T19:50:04;14.50;94.20
16064;DHT22;8136;53.172;8.256;2023-04-09T19:52:31;14.50;94.30
16064;DHT22;8136;53.172;8.256;2023-04-09T19:54:59;14.50;94.50
16064;DHT22;8136;53.172;8.256;2023-04-09T19:57:27;14.50;94.70
16064;DHT22;8136;53.172;8.256;2023-04-09T19:59:56;14.40;95.40
16064;DHT22;8136;53.172;8.256;2023-04-09T20:02:24;14.40;95.50
16064;DHT22;8136;53.172;8.256;2023-04-09T20:04:51;14.30;95.30
16064;DHT22;8136;53.172;8.256;2023-04-09T20:07:18;14.20;95.50
16064;DHT22;8136;53.172;8.256;2023-04-09T20:09:46;14.20;95.80
16064;DHT22;8136;53.172;8.256;2023-04-09T20:12:15;14.00;95.80
16064;DHT22;8136;53.172;8.256;2023-04-09T20:14:42;14.00;95.80
16064;DHT22;8136;53.172;8.256;2023-04-09T20:17:08;13.90;96.10
16064;DHT22;8136;53.172;8.256;2023-04-09T20:19:35;13.80;96.10
16064;DHT22;8136;53.172;8.256;2023-04-09T20:22:03;13.70;96.60
16064;DHT22;8136;53.172;8.256;2023-04-09T20:24:30;13.60;96.90
16064;DHT22;8136;53.172;8.256;2023-04-09T20:26:58;13.50;97.30
16064;DHT22;8136;53.172;8.256;2023-04-09T20:29:26;13.30;97.70
16064;DHT22;8136;53.172;8.256;2023-04-09T20:31:53;13.20;98.10
16064;DHT22;8136;53.172;8.256;2023-04-09T20:34:20;13.30;98.30
16064;DHT22;8136;53.172;8.256;2023-04-09T20:36:51;13.20;98.80
16064;DHT22;8136;53.172;8.256;2023-04-09T20:39:18;13.10;99.00
16064;DHT22;8136;53.172;8.256;2023-04-09T20:41:45;12.90;99.40
16064;DHT22;8136;53.172;8.256;2023-04-09T20:44:11;12.80;99.70
16064;DHT22;8136;53.172;8.256;2023-04-09T20:46:40;12.70;99.90
16064;DHT22;8136;53.172;8.256;2023-04-09T20:49:07;12.70;99.90
16064;DHT22;8136;53.172;8.256;2023-04-09T20:51:33;12.70;99.90
16064;DHT22;8136;53.172;8.256;2023-04-09T20:54:00;12.60;99.90
16064;DHT22;8136;53.172;8.256;2023-04-09T20:56:27;12.50;99.90
16064;DHT22;8136;53.172;8.256;2023-04-09T20:58:55;12.60;99.90
16064;DHT22;8136;53.172;8.256;2023-04-09T21:01:23;12.50;99.90
16064;DHT22;8136;53.172;8.256;2023-04-09T21:03:52;12.50;99.90
16064;DHT22;8136;53.172;8.256;2023-04-09T21:06:19;12.40;99.90
16064;DHT22;8136;53.172;8.256;2023-04-09T21:08:46;12.30;99.90
16064;DHT22;8136;53.172;8.256;2023-04-09T21:11:13;12.20;99.90
16064;DHT22;8136;53.172;8.256;2023-04-09T21:13:40;12.10;99.90
16064;DHT22;8136;53.172;8.256;2023-04-09T21:16:08;12.10;99.90
16064;DHT22;8136;53.172;8.256;2023-04-09T21:18:35;12.10;99.90
16064;DHT22;8136;53.172;8.256;2023-04-09T21:21:06;12.00;99.90
16064;DHT22;8136;53.172;8.256;2023-04-09T21:23:33;11.90;99.90
16064;DHT22;8136;53.172;8.256;2023-04-09T21:26:01;11.90;99.90
16064;DHT22;8136;53.172;8.256;2023-04-09T21:28:28;11.90;99.90
16064;DHT22;8136;53.172;8.256;2023-04-09T21:30:56;11.90;99.90
16064;DHT22;8136;53.172;8.256;2023-04-09T21:33:45;11.80;99.90
16064;DHT22;8136;53.172;8.256;2023-04-09T21:36:14;11.80;99.90
16064;DHT22;8136;53.172;8.256;2023-04-09T21:39:16;11.70;99.90
16064;DHT22;8136;53.172;8.256;2023-04-09T21:41:51;11.80;99.90
16064;DHT22;8136;53.172;8.256;2023-04-09T21:44:36;11.60;99.90
16064;DHT22;8136;53.172;8.256;2023-04-09T21:47:11;11.50;99.90
16064;DHT22;8136;53.172;8.256;2023-04-09T21:49:44;11.50;99.90
16064;DHT22;8136;53.172;8.256;2023-04-09T21:52:32;11.50;99.90
16064;DHT22;8136;53.172;8.256;2023-04-09T21:55:20;11.50;99.90
16064;DHT22;8136;53.172;8.256;2023-04-09T21:58:00;11.40;99.90
16064;DHT22;8136;53.172;8.256;2023-04-09T22:00:31;11.30;99.90
16064;DHT22;8136;53.172;8.256;2023-04-09T22:02:58;11.30;99.90
16064;DHT22;8136;53.172;8.256;2023-04-09T22:05:30;11.30;99.90
16064;DHT22;8136;53.172;8.256;2023-04-09T22:08:00;11.20;99.90
16064;DHT22;8136;53.172;8.256;2023-04-09T22:10:32;11.10;99.90
16064;DHT22;8136;53.172;8.256;2023-04-09T22:13:21;11.00;99.90
16064;DHT22;8136;53.172;8.256;2023-04-09T22:15:50;10.90;99.90
16064;DHT22;8136;53.172;8.256;2023-04-09T22:18:17;10.80;99.90
16064;DHT22;8136;53.172;8.256;2023-04-09T22:20:46;10.80;99.90
16064;DHT22;8136;53.172;8.256;2023-04-09T22:23:33;10.90;99.90
16064;DHT22;8136;53.172;8.256;2023-04-09T22:26:16;10.80;99.90
16064;DHT22;8136;53.172;8.256;2023-04-09T22:28:53;10.80;99.90
16064;DHT22;8136;53.172;8.256;2023-04-09T22:31:22;10.80;99.90
16064;DHT22;8136;53.172;8.256;2023-04-09T22:33:49;10.80;99.90
16064;DHT22;8136;53.172;8.256;2023-04-09T22:36:17;10.80;99.90
16064;DHT22;8136;53.172;8.256;2023-04-09T22:38:52;10.90;99.90
16064;DHT22;8136;53.172;8.256;2023-04-09T22:41:33;10.80;99.90
16064;DHT22;8136;53.172;8.256;2023-04-09T22:44:12;10.70;99.90
16064;DHT22;8136;53.172;8.256;2023-04-09T22:47:17;10.70;99.90
16064;DHT22;8136;53.172;8.256;2023-04-09T22:50:00;10.60;99.90
16064;DHT22;8136;53.172;8.256;2023-04-09T22:52:44;10.60;99.90
16064;DHT22;8136;53.172;8.256;2023-04-09T23:09:24;10.30;99.90
16064;DHT22;8136;53.172;8.256;2023-04-09T23:11:57;10.20;99.90
16064;DHT22;8136;53.172;8.256;2023-04-09T23:14:25;10.10;99.90
16064;DHT22;8136;53.172;8.256;2023-04-09T23:16:52;10.10;99.90
16064;DHT22;8136;53.172;8.256;2023-04-09T23:19:19;10.10;99.90
16064;DHT22;8136;53.172;8.256;2023-04-09T23:21:46;10.00;99.90
16064;DHT22;8136;53.172;8.256;2023-04-09T23:24:15;10.00;99.90
16064;DHT22;8136;53.172;8.256;2023-04-09T23:26:42;10.00;99.90
16064;DHT22;8136;53.172;8.256;2023-04-09T23:29:08;10.00;99.90
16064;DHT22;8136;53.172;8.256;2023-04-09T23:31:35;9.90;99.90
16064;DHT22;8136;53.172;8.256;2023-04-09T23:34:02;9.90;99.90
16064;DHT22;8136;53.172;8.256;2023-04-09T23:36:29;9.80;99.90
16064;DHT22;8136;53.172;8.256;2023-04-09T23:38:56;9.80;99.90
16064;DHT22;8136;53.172;8.256;2023-04-09T23:41:24;9.80;99.90
